createdAt,value
2018-05-18T00:00:07.589Z,73.42
2018-05-18T00:01:07.548Z,73.25
2018-05-18T00:02:07.557Z,73.32
2018-05-18T00:03:07.605Z,73.38
2018-05-18T00:04:07.586Z,73.05
2018-05-18T00:05:07.574Z,73.05
2018-05-18T00:06:07.671Z,73.41
2018-05-18T00:07:07.605Z,73.77
2018-05-18T00:08:07.595Z,73.39
2018-05-18T00:09:07.756Z,73.35
2018-05-18T00:10:07.580Z,73.75
2018-05-18T00:11:07.556Z,73.14
2018-05-18T00:12:07.644Z,73.84
2018-05-18T00:13:07.580Z,73.83
2018-05-18T00:14:07.570Z,73.95
2018-05-18T00:15:07.546Z,73.64
2018-05-18T00:16:07.553Z,73.76
2018-05-18T00:17:07.604Z,73.94
2018-05-18T00:18:07.539Z,73.93
2018-05-18T00:19:07.557Z,74.19
2018-05-18T00:20:07.574Z,74.19
2018-05-18T00:21:07.576Z,74.2
2018-05-18T00:22:07.577Z,74.38
2018-05-18T00:23:07.603Z,74.15
2018-05-18T00:24:07.544Z,74.03
2018-05-18T00:25:07.570Z,74.33
2018-05-18T00:26:07.554Z,74.3
2018-05-18T00:27:07.557Z,74.61
2018-05-18T00:28:07.573Z,74.82
2018-05-18T00:29:07.552Z,74.66
2018-05-18T00:30:07.589Z,74.44
2018-05-18T00:31:07.589Z,74.53
2018-05-18T00:32:07.585Z,74.86
2018-05-18T00:33:07.625Z,74.99
2018-05-18T00:34:07.580Z,74.84
2018-05-18T00:35:07.555Z,74.94
2018-05-18T00:36:07.559Z,74.75
2018-05-18T00:37:07.602Z,74.69
2018-05-18T00:38:07.597Z,74.75
2018-05-18T00:39:07.596Z,74.94
2018-05-18T00:40:07.554Z,75.07
2018-05-18T00:41:07.584Z,75.1
2018-05-18T00:42:07.573Z,75.21
2018-05-18T00:43:07.561Z,75.28
2018-05-18T00:44:07.615Z,75.42
2018-05-18T00:45:07.591Z,75.27
2018-05-18T00:46:07.747Z,75.08
2018-05-18T00:47:07.618Z,75.17
2018-05-18T00:48:07.612Z,75.23
2018-05-18T00:49:07.581Z,75.31
2018-05-18T00:50:07.588Z,75.4
2018-05-18T00:51:07.613Z,75.44
2018-05-18T00:52:07.631Z,75.42
2018-05-18T00:53:07.590Z,75.2
2018-05-18T00:54:07.588Z,75.27
2018-05-18T00:55:07.629Z,75.11
2018-05-18T00:56:07.562Z,75.28
2018-05-18T00:57:07.596Z,75.38
2018-05-18T00:58:07.577Z,75.13
2018-05-18T00:59:07.556Z,75.23
2018-05-18T01:00:07.670Z,75.05
2018-05-18T01:01:07.738Z,74.86
2018-05-18T01:02:07.622Z,74.85
2018-05-18T01:03:07.740Z,75.35
2018-05-18T01:04:07.621Z,75.39
2018-05-18T01:05:07.619Z,75.4
2018-05-18T01:06:07.598Z,75.38
2018-05-18T01:07:07.587Z,75.39
2018-05-18T01:08:07.627Z,75.46
2018-05-18T01:09:07.619Z,75.46
2018-05-18T01:10:07.618Z,75.32
2018-05-18T01:11:07.586Z,75.46
2018-05-18T01:12:07.605Z,75.2
2018-05-18T01:13:07.608Z,75.03
2018-05-18T01:14:07.576Z,74.96
2018-05-18T01:15:08.156Z,74.75
2018-05-18T01:16:07.659Z,75.07
2018-05-18T01:17:07.588Z,74.84
2018-05-18T01:18:07.665Z,74.82
2018-05-18T01:19:07.741Z,74.74
2018-05-18T01:20:07.609Z,74.64
2018-05-18T01:21:07.594Z,75
2018-05-18T01:22:07.629Z,75.17
2018-05-18T01:23:07.633Z,75.07
2018-05-18T01:24:07.620Z,75.05
2018-05-18T01:25:07.617Z,74.91
2018-05-18T01:26:07.659Z,75.08
2018-05-18T01:27:07.617Z,75.05
2018-05-18T01:28:07.635Z,75.06
2018-05-18T01:29:07.632Z,75.13
2018-05-18T01:30:07.600Z,75.43
2018-05-18T01:31:07.608Z,75.39
2018-05-18T01:32:07.617Z,75.4
2018-05-18T01:33:07.955Z,75.7
2018-05-18T01:34:07.628Z,75.43
2018-05-18T01:35:07.634Z,76.22
2018-05-18T01:36:07.634Z,76.11
2018-05-18T01:37:07.611Z,76.3
2018-05-18T01:38:07.614Z,76.31
2018-05-18T01:39:07.600Z,76.41
2018-05-18T01:40:07.602Z,76.09
2018-05-18T01:41:07.743Z,76.03
2018-05-18T01:42:07.594Z,76.25
2018-05-18T01:43:07.646Z,76.2
2018-05-18T01:44:07.612Z,76.32
2018-05-18T01:45:07.587Z,76.47
2018-05-18T01:46:07.588Z,76.61
2018-05-18T01:47:07.617Z,76.46
2018-05-18T01:48:07.605Z,76.49
2018-05-18T01:49:07.607Z,76.26
2018-05-18T01:50:07.627Z,76.25
2018-05-18T01:51:07.995Z,76.41
2018-05-18T01:52:07.592Z,76.37
2018-05-18T01:53:07.625Z,76.46
2018-05-18T01:54:07.632Z,76.47
2018-05-18T01:55:07.701Z,76.93
2018-05-18T01:56:07.617Z,77.14
2018-05-18T01:57:07.629Z,76.91
2018-05-18T01:58:07.639Z,77.02
2018-05-18T01:59:07.624Z,76.84
2018-05-18T02:00:07.607Z,76.8
2018-05-18T02:01:07.945Z,76.91
2018-05-18T02:02:07.579Z,76.78
2018-05-18T02:03:07.578Z,76.73
2018-05-18T02:04:07.604Z,76.75
2018-05-18T02:05:07.747Z,76.71
2018-05-18T02:06:07.613Z,76.8
2018-05-18T02:07:07.606Z,76.73
2018-05-18T02:08:07.637Z,76.81
2018-05-18T02:09:07.600Z,76.78
2018-05-18T02:10:07.597Z,76.93
2018-05-18T02:11:07.635Z,77.06
2018-05-18T02:12:07.630Z,77.1
2018-05-18T02:13:07.654Z,77.05
2018-05-18T02:14:07.664Z,77.15
2018-05-18T02:15:07.605Z,77.03
2018-05-18T02:16:07.597Z,76.67
2018-05-18T02:17:07.609Z,76.61
2018-05-18T02:18:07.672Z,76.95
2018-05-18T02:19:07.625Z,77.2
2018-05-18T02:20:07.592Z,77.26
2018-05-18T02:21:07.615Z,76.96
2018-05-18T02:22:07.764Z,76.86
2018-05-18T02:23:07.807Z,76.67
2018-05-18T02:24:07.622Z,76.39
2018-05-18T02:25:07.765Z,76.69
2018-05-18T02:26:07.616Z,76.57
2018-05-18T02:27:07.605Z,76.57
2018-05-18T02:28:07.621Z,76.57
2018-05-18T02:29:07.641Z,76.56
2018-05-18T02:30:07.598Z,76.29
2018-05-18T02:31:07.602Z,76.48
2018-05-18T02:32:07.612Z,76.63
2018-05-18T02:33:07.608Z,76.56
2018-05-18T02:34:07.636Z,76.67
2018-05-18T02:35:07.616Z,76.76
2018-05-18T02:36:07.631Z,76.8
2018-05-18T02:37:07.618Z,76.77
2018-05-18T02:38:07.594Z,76.84
2018-05-18T02:39:07.635Z,76.8
2018-05-18T02:40:07.615Z,76.67
2018-05-18T02:41:07.638Z,76.75
2018-05-18T02:42:07.647Z,76.73
2018-05-18T02:43:07.605Z,76.68
2018-05-18T02:44:07.597Z,76.66
2018-05-18T02:45:07.610Z,76.47
2018-05-18T02:46:07.652Z,76.56
2018-05-18T02:47:07.714Z,76.38
2018-05-18T02:48:07.801Z,76.53
2018-05-18T02:49:07.729Z,76.25
2018-05-18T02:50:07.618Z,76.55
2018-05-18T02:51:07.618Z,76.55
2018-05-18T02:52:07.629Z,76.42
2018-05-18T02:53:07.616Z,76.85
2018-05-18T02:54:07.625Z,76.69
2018-05-18T02:55:07.628Z,76.61
2018-05-18T02:56:07.812Z,76.55
2018-05-18T02:57:07.809Z,76.69
2018-05-18T02:58:07.644Z,76.76
2018-05-18T02:59:07.696Z,76.54
2018-05-18T03:00:07.647Z,76.67
2018-05-18T03:01:07.629Z,76.39
2018-05-18T03:02:07.648Z,76.53
2018-05-18T03:03:07.674Z,76.51
2018-05-18T03:04:07.624Z,76.59
2018-05-18T03:05:07.804Z,76.8
2018-05-18T03:06:07.743Z,76.79
2018-05-18T03:07:07.682Z,76.84
2018-05-18T03:08:07.666Z,76.71
2018-05-18T03:09:07.671Z,76.84
2018-05-18T03:10:07.686Z,76.68
2018-05-18T03:11:07.641Z,76.68
2018-05-18T03:12:07.660Z,76.98
2018-05-18T03:13:07.810Z,76.73
2018-05-18T03:14:07.669Z,76.85
2018-05-18T03:15:07.758Z,76.84
2018-05-18T03:16:07.715Z,76.98
2018-05-18T03:17:07.805Z,76.77
2018-05-18T03:18:07.782Z,76.91
2018-05-18T03:19:07.652Z,76.89
2018-05-18T03:20:07.719Z,76.95
2018-05-18T03:21:08.262Z,76.9
2018-05-18T03:22:07.635Z,77.05
2018-05-18T03:23:07.678Z,77.11
2018-05-18T03:24:07.641Z,77.24
2018-05-18T03:25:07.637Z,77.39
2018-05-18T03:26:07.666Z,77.28
2018-05-18T03:27:07.646Z,77.35
2018-05-18T03:28:07.767Z,77.59
2018-05-18T03:29:07.645Z,77.83
2018-05-18T03:30:07.673Z,77.65
2018-05-18T03:31:07.677Z,77.49
2018-05-18T03:32:07.641Z,77.55
2018-05-18T03:33:07.650Z,77.31
2018-05-18T03:34:07.656Z,77.61
2018-05-18T03:35:07.657Z,77.6
2018-05-18T03:36:07.663Z,77.71
2018-05-18T03:37:07.628Z,77.39
2018-05-18T03:38:07.663Z,77.03
2018-05-18T03:39:07.632Z,77
2018-05-18T03:40:07.657Z,77.12
2018-05-18T03:41:07.671Z,77.08
2018-05-18T03:42:07.648Z,76.94
2018-05-18T03:43:07.644Z,77.12
2018-05-18T03:44:07.694Z,76.94
2018-05-18T03:45:07.663Z,77
2018-05-18T03:46:07.630Z,77.87
2018-05-18T03:47:07.644Z,77.25
2018-05-18T03:48:07.629Z,77.44
2018-05-18T03:49:07.632Z,77.5
2018-05-18T03:50:07.633Z,77.19
2018-05-18T03:51:07.638Z,77.49
2018-05-18T03:52:07.632Z,77.63
2018-05-18T03:53:07.640Z,77.44
2018-05-18T03:54:07.653Z,77.52
2018-05-18T03:55:07.647Z,77.42
2018-05-18T03:56:07.755Z,77.18
2018-05-18T03:57:07.651Z,77.69
2018-05-18T03:58:07.663Z,77.8
2018-05-18T03:59:07.672Z,77.54
2018-05-18T04:00:07.696Z,77.34
2018-05-18T04:01:07.659Z,77.54
2018-05-18T04:02:07.674Z,77.57
2018-05-18T04:03:07.628Z,77.92
2018-05-18T04:04:07.642Z,77.73
2018-05-18T04:05:07.803Z,77.3
2018-05-18T04:06:07.687Z,77.37
2018-05-18T04:07:07.678Z,77.98
2018-05-18T04:08:07.655Z,77.77
2018-05-18T04:09:07.763Z,77.44
2018-05-18T04:10:07.695Z,78.03
2018-05-18T04:11:07.657Z,77.8
2018-05-18T04:12:07.708Z,78.34
2018-05-18T04:13:07.677Z,78.32
2018-05-18T04:14:07.645Z,77.99
2018-05-18T04:15:07.805Z,78.25
2018-05-18T04:16:07.690Z,78.37
2018-05-18T04:17:07.987Z,78.28
2018-05-18T04:18:07.662Z,78.48
2018-05-18T04:19:07.678Z,78.78
2018-05-18T04:20:07.676Z,78.22
2018-05-18T04:21:07.642Z,78.26
2018-05-18T04:22:07.670Z,78.05
2018-05-18T04:23:07.675Z,78.22
2018-05-18T04:24:07.655Z,78.46
2018-05-18T04:25:07.723Z,78.55
2018-05-18T04:26:07.688Z,78.56
2018-05-18T04:27:07.662Z,78.74
2018-05-18T04:28:07.670Z,78.61
2018-05-18T04:29:07.664Z,78.97
2018-05-18T04:30:08.172Z,79.55
2018-05-18T04:31:07.675Z,79
2018-05-18T04:32:07.724Z,78.99
2018-05-18T04:33:07.692Z,79.02
2018-05-18T04:34:07.645Z,78.56
2018-05-18T04:35:07.640Z,79.05
2018-05-18T04:36:07.802Z,78.9
2018-05-18T04:37:07.660Z,78.97
2018-05-18T04:38:07.902Z,79.02
2018-05-18T04:39:07.654Z,78.79
2018-05-18T04:40:07.678Z,78.88
2018-05-18T04:41:07.655Z,78.8
2018-05-18T04:42:07.700Z,79.18
2018-05-18T04:43:08.039Z,78.65
2018-05-18T04:44:07.750Z,78.59
2018-05-18T04:45:07.667Z,78.67
2018-05-18T04:46:07.688Z,78.53
2018-05-18T04:47:07.776Z,78.86
2018-05-18T04:48:07.943Z,78.52
2018-05-18T04:49:07.693Z,78.91
2018-05-18T04:50:07.647Z,78.94
2018-05-18T04:51:07.656Z,78.88
2018-05-18T04:52:07.728Z,78.6
2018-05-18T04:53:07.722Z,78.75
2018-05-18T04:54:07.680Z,78.9
2018-05-18T04:55:07.679Z,78.84
2018-05-18T04:56:07.732Z,78.32
2018-05-18T04:57:07.663Z,78.75
2018-05-18T04:58:07.792Z,78.7
2018-05-18T04:59:07.945Z,78.88
2018-05-18T05:00:07.671Z,78.77
2018-05-18T05:01:07.693Z,79.05
2018-05-18T05:02:07.688Z,78.67
2018-05-18T05:03:07.693Z,78.9
2018-05-18T05:04:07.701Z,79.39
2018-05-18T05:05:07.688Z,79.5
2018-05-18T05:06:07.656Z,80
2018-05-18T05:07:07.837Z,79.99
2018-05-18T05:08:07.668Z,79.96
2018-05-18T05:09:07.683Z,79.41
2018-05-18T05:10:07.671Z,79.95
2018-05-18T05:11:07.706Z,79.8
2018-05-18T05:12:07.690Z,79.99
2018-05-18T05:13:07.671Z,80.27
2018-05-18T05:14:07.696Z,80.14
2018-05-18T05:15:07.688Z,80.13
2018-05-18T05:16:07.699Z,80.48
2018-05-18T05:17:07.706Z,80.15
2018-05-18T05:18:07.803Z,80.73
2018-05-18T05:19:07.703Z,80.84
2018-05-18T05:20:07.780Z,80.86
2018-05-18T05:21:07.677Z,81.46
2018-05-18T05:22:08.121Z,81.65
2018-05-18T05:23:07.714Z,81.48
2018-05-18T05:24:07.678Z,81.47
2018-05-18T05:25:08.562Z,81.76
2018-05-18T05:26:07.675Z,81.94
2018-05-18T05:27:08.048Z,82.09
2018-05-18T05:28:07.784Z,82.1
2018-05-18T05:29:07.683Z,82.13
2018-05-18T05:30:07.689Z,82.04
2018-05-18T05:31:07.700Z,82.17
2018-05-18T05:32:07.681Z,82.28
2018-05-18T05:33:07.695Z,82.21
2018-05-18T05:34:07.714Z,82.13
2018-05-18T05:35:07.692Z,82.11
2018-05-18T05:36:07.721Z,82.48
2018-05-18T05:37:07.691Z,82.1
2018-05-18T05:38:07.816Z,82.2
2018-05-18T05:39:07.734Z,82.28
2018-05-18T05:40:07.930Z,82.59
2018-05-18T05:41:07.757Z,82.47
2018-05-18T05:42:07.691Z,82.61
2018-05-18T05:43:07.734Z,81.87
2018-05-18T05:44:08.253Z,81.84
2018-05-18T05:45:07.703Z,81.75
2018-05-18T05:46:07.723Z,81.73
2018-05-18T05:47:07.707Z,82.06
2018-05-18T05:48:07.694Z,82.1
2018-05-18T05:49:07.758Z,81.79
2018-05-18T05:50:07.682Z,82.12
2018-05-18T05:51:07.712Z,82.19
2018-05-18T05:52:07.701Z,82.14
2018-05-18T05:53:07.741Z,82.11
2018-05-18T05:54:07.724Z,81.58
2018-05-18T05:55:07.679Z,81.79
2018-05-18T05:56:07.732Z,81.42
2018-05-18T05:57:07.693Z,81.59
2018-05-18T05:58:07.733Z,81.46
2018-05-18T05:59:07.792Z,81.04
2018-05-18T06:00:07.702Z,81.31
2018-05-18T06:01:07.720Z,81.66
2018-05-18T06:02:07.699Z,81.74
2018-05-18T06:03:07.716Z,81.26
2018-05-18T06:04:07.722Z,81
2018-05-18T06:05:07.704Z,81.65
2018-05-18T06:06:07.704Z,81.37
2018-05-18T06:07:07.704Z,81.46
2018-05-18T06:08:07.689Z,81.07
2018-05-18T06:09:07.719Z,80.86
2018-05-18T06:10:07.723Z,80.84
2018-05-18T06:11:07.707Z,81.1
2018-05-18T06:12:07.794Z,80.88
2018-05-18T06:13:07.746Z,80.91
2018-05-18T06:14:07.740Z,81.04
2018-05-18T06:15:07.729Z,81.12
2018-05-18T06:16:07.724Z,80.97
2018-05-18T06:17:07.741Z,80.86
2018-05-18T06:18:07.768Z,80.78
2018-05-18T06:19:07.747Z,80.2
2018-05-18T06:20:07.748Z,80.21
2018-05-18T06:21:07.729Z,80.19
2018-05-18T06:22:07.724Z,80.4
2018-05-18T06:23:07.699Z,80.65
2018-05-18T06:24:07.717Z,80.72
2018-05-18T06:25:07.700Z,80.98
2018-05-18T06:26:07.781Z,80.26
2018-05-18T06:27:07.729Z,80.05
2018-05-18T06:28:07.735Z,80.37
2018-05-18T06:29:07.755Z,80.78
2018-05-18T06:30:07.699Z,79.73
2018-05-18T06:31:07.737Z,80.05
2018-05-18T06:32:07.712Z,80.02
2018-05-18T06:33:07.710Z,79.94
2018-05-18T06:34:07.711Z,79.86
2018-05-18T06:35:08.407Z,80.09
2018-05-18T06:36:07.715Z,79.75
2018-05-18T06:37:07.723Z,79.38
2018-05-18T06:38:07.759Z,79.17
2018-05-18T06:39:07.791Z,78.55
2018-05-18T06:40:07.827Z,79.07
2018-05-18T06:41:07.914Z,79
2018-05-18T06:42:07.718Z,79.42
2018-05-18T06:43:07.703Z,78.84
2018-05-18T06:44:07.734Z,78.29
2018-05-18T06:45:07.794Z,78.59
2018-05-18T06:46:07.709Z,78.44
2018-05-18T06:47:07.733Z,78.39
2018-05-18T06:48:07.783Z,78.6
2018-05-18T06:49:07.746Z,78.45
2018-05-18T06:50:07.766Z,78.08
2018-05-18T06:51:07.742Z,78.45
2018-05-18T06:52:07.727Z,78.06
2018-05-18T06:53:07.902Z,77.72
2018-05-18T06:54:07.828Z,78.06
2018-05-18T06:55:07.989Z,78.03
2018-05-18T06:56:07.750Z,77.92
2018-05-18T06:57:07.744Z,77.82
2018-05-18T06:58:07.711Z,77.63
2018-05-18T06:59:07.857Z,78.18
2018-05-18T07:00:07.724Z,77.72
2018-05-18T07:01:07.740Z,78.08
2018-05-18T07:02:07.726Z,78.09
2018-05-18T07:03:07.722Z,78.14
2018-05-18T07:04:08.118Z,77.47
2018-05-18T07:05:07.716Z,76.59
2018-05-18T07:06:07.725Z,76.12
2018-05-18T07:07:07.730Z,76.54
2018-05-18T07:08:07.719Z,76.84
2018-05-18T07:09:07.749Z,77.62
2018-05-18T07:10:07.728Z,76.92
2018-05-18T07:11:07.733Z,76.78
2018-05-18T07:12:07.735Z,76.78
2018-05-18T07:13:07.747Z,76.39
2018-05-18T07:14:07.850Z,76.26
2018-05-18T07:15:07.983Z,76.39
2018-05-18T07:16:07.739Z,76.09
2018-05-18T07:17:07.841Z,76.05
2018-05-18T07:18:07.733Z,75.8
2018-05-18T07:19:07.750Z,76.07
2018-05-18T07:20:07.737Z,76.31
2018-05-18T07:21:07.772Z,75.65
2018-05-18T07:22:07.721Z,75.69
2018-05-18T07:23:08.387Z,75.08
2018-05-18T07:24:07.767Z,75.21
2018-05-18T07:25:07.742Z,74.85
2018-05-18T07:26:07.891Z,75.72
2018-05-18T07:27:07.795Z,75.57
2018-05-18T07:28:07.764Z,75.48
2018-05-18T07:29:07.856Z,75.3
2018-05-18T07:30:08.367Z,74.96
2018-05-18T07:31:07.788Z,74.46
2018-05-18T07:32:07.737Z,73.97
2018-05-18T07:33:07.761Z,73.71
2018-05-18T07:34:07.805Z,74.54
2018-05-18T07:35:07.752Z,74.88
2018-05-18T07:36:08.113Z,73.92
2018-05-18T07:37:07.858Z,73.42
2018-05-18T07:38:07.753Z,73.68
2018-05-18T07:39:07.761Z,73.97
2018-05-18T07:40:07.885Z,73.68
2018-05-18T07:41:07.755Z,73.53
2018-05-18T07:42:07.744Z,73.19
2018-05-18T07:43:07.765Z,73.57
2018-05-18T07:44:07.740Z,73.57
2018-05-18T07:45:07.872Z,73.1
2018-05-18T07:46:07.793Z,72.73
2018-05-18T07:47:07.760Z,72.74
2018-05-18T07:48:07.852Z,73.47
2018-05-18T07:49:07.739Z,73.17
2018-05-18T07:50:08.037Z,73.7
2018-05-18T07:51:07.770Z,72.79
2018-05-18T07:52:07.749Z,72.77
2018-05-18T07:53:07.757Z,72.75
2018-05-18T07:54:07.747Z,72.85
2018-05-18T07:55:07.740Z,73.12
2018-05-18T07:56:07.754Z,73.23
2018-05-18T07:57:07.751Z,72.63
2018-05-18T07:58:07.768Z,72.39
2018-05-18T07:59:07.754Z,71.74
2018-05-18T08:00:07.781Z,72.17
2018-05-18T08:01:07.755Z,71.58
2018-05-18T08:02:07.762Z,71.41
2018-05-18T08:03:07.745Z,70.72
2018-05-18T08:04:07.744Z,71.17
2018-05-18T08:05:07.753Z,71.45
2018-05-18T08:06:07.752Z,70.3
2018-05-18T08:07:07.745Z,70.86
2018-05-18T08:08:07.771Z,70.36
2018-05-18T08:09:07.831Z,68.79
2018-05-18T08:10:07.761Z,69.58
2018-05-18T08:11:07.747Z,69.54
2018-05-18T08:12:07.760Z,69.99
2018-05-18T08:13:07.754Z,70.71
2018-05-18T08:14:07.811Z,69.41
2018-05-18T08:15:07.949Z,70.52
2018-05-18T08:16:07.771Z,70.47
2018-05-18T08:17:07.754Z,69.77
2018-05-18T08:18:07.747Z,69.72
2018-05-18T08:19:07.776Z,70.33
2018-05-18T08:20:07.831Z,69.38
2018-05-18T08:21:07.762Z,69.31
2018-05-18T08:22:07.765Z,69.62
2018-05-18T08:23:07.775Z,69.01
2018-05-18T08:24:07.781Z,69.05
2018-05-18T08:25:07.790Z,69.41
2018-05-18T08:26:07.744Z,69.1
2018-05-18T08:27:08.132Z,68.94
2018-05-18T08:28:07.770Z,68.77
2018-05-18T08:29:07.913Z,68.98
2018-05-18T08:30:07.772Z,68.05
2018-05-18T08:31:07.944Z,68.04
2018-05-18T08:32:07.981Z,69.59
2018-05-18T08:33:07.799Z,68.96
2018-05-18T08:34:07.795Z,68.83
2018-05-18T08:35:07.778Z,67.19
2018-05-18T08:36:07.797Z,66.42
2018-05-18T08:37:07.774Z,67
2018-05-18T08:38:07.864Z,67.94
2018-05-18T08:39:08.025Z,67.31
2018-05-18T08:40:07.838Z,66.38
2018-05-18T08:41:07.746Z,66.42
2018-05-18T08:42:07.798Z,66.84
2018-05-18T08:43:07.758Z,66.63
2018-05-18T08:44:07.775Z,66.81
2018-05-18T08:45:08.176Z,66.79
2018-05-18T08:46:07.840Z,67.52
2018-05-18T08:47:07.794Z,67.68
2018-05-18T08:48:07.779Z,67.1
2018-05-18T08:49:07.958Z,66.76
2018-05-18T08:50:07.777Z,65.76
2018-05-18T08:51:07.768Z,66.57
2018-05-18T08:52:08.007Z,65.82
2018-05-18T08:53:07.779Z,65.67
2018-05-18T08:54:07.931Z,65.57
2018-05-18T08:55:07.822Z,65.88
2018-05-18T08:56:07.829Z,66.04
2018-05-18T08:57:08.600Z,65.7
2018-05-18T08:58:07.801Z,65.72
2018-05-18T08:59:07.765Z,65.51
2018-05-18T09:00:07.792Z,64.93
2018-05-18T09:01:07.779Z,65.36
2018-05-18T09:02:07.795Z,64.64
2018-05-18T09:03:07.782Z,64.75
2018-05-18T09:04:07.786Z,65.57
2018-05-18T09:05:07.834Z,65.87
2018-05-18T09:06:07.770Z,64.21
2018-05-18T09:07:07.780Z,64.68
2018-05-18T09:08:07.780Z,65.22
2018-05-18T09:09:07.846Z,64.22
2018-05-18T09:10:07.776Z,64.15
2018-05-18T09:11:07.835Z,64.56
2018-05-18T09:12:07.766Z,63.8
2018-05-18T09:13:07.776Z,64.38
2018-05-18T09:14:07.781Z,62.62
2018-05-18T09:15:07.800Z,63.06
2018-05-18T09:16:07.773Z,62.64
2018-05-18T09:17:07.779Z,62.97
2018-05-18T09:18:07.780Z,63.46
2018-05-18T09:19:07.814Z,63.08
2018-05-18T09:20:07.803Z,63.43
2018-05-18T09:21:07.850Z,63.27
2018-05-18T09:22:07.814Z,61.92
2018-05-18T09:23:07.822Z,63.17
2018-05-18T09:24:07.827Z,62.31
2018-05-18T09:25:07.815Z,62.18
2018-05-18T09:26:07.786Z,63.39
2018-05-18T09:27:07.803Z,64.45
2018-05-18T09:28:07.786Z,64.03
2018-05-18T09:29:07.776Z,64.31
2018-05-18T09:30:07.806Z,64.06
2018-05-18T09:31:07.800Z,63.54
2018-05-18T09:32:07.780Z,63.57
2018-05-18T09:33:07.796Z,63.07
2018-05-18T09:34:08.062Z,63.35
2018-05-18T09:35:07.801Z,61.87
2018-05-18T09:36:07.833Z,62.99
2018-05-18T09:37:07.813Z,61.69
2018-05-18T09:38:07.820Z,62.02
2018-05-18T09:39:07.969Z,61.81
2018-05-18T09:40:07.825Z,61.95
2018-05-18T09:41:07.807Z,62.07
2018-05-18T09:42:07.815Z,61.99
2018-05-18T09:43:07.844Z,62.63
2018-05-18T09:44:07.890Z,61.68
2018-05-18T09:45:08.231Z,61.63
2018-05-18T09:46:07.876Z,61.58
2018-05-18T09:47:07.812Z,62.12
2018-05-18T09:48:08.712Z,61.81
2018-05-18T09:49:08.453Z,61.26
2018-05-18T09:50:08.497Z,61.93
2018-05-18T09:51:08.467Z,61.24
2018-05-18T09:52:08.603Z,60.83
2018-05-18T09:53:08.234Z,60.53
2018-05-18T09:54:09.047Z,61.34
2018-05-18T09:55:09.874Z,61.12
2018-05-18T09:56:08.562Z,61.78
2018-05-18T09:57:07.820Z,61.13
2018-05-18T09:58:07.980Z,61.92
2018-05-18T09:59:08.019Z,62.33
2018-05-18T10:00:07.844Z,61.91
2018-05-18T10:01:07.808Z,61.95
2018-05-18T10:02:07.815Z,61.7
2018-05-18T10:03:07.823Z,60.65
2018-05-18T10:04:07.802Z,60.12
2018-05-18T10:05:07.837Z,60.63
2018-05-18T10:06:07.813Z,60.75
2018-05-18T10:07:07.823Z,61.63
2018-05-18T10:08:07.824Z,61.92
2018-05-18T10:09:08.017Z,60.95
2018-05-18T10:10:07.969Z,61.07
2018-05-18T10:11:07.819Z,61.23
2018-05-18T10:12:08.063Z,60.63
2018-05-18T10:13:07.854Z,60.22
2018-05-18T10:14:07.841Z,60.58
2018-05-18T10:15:07.964Z,60.83
2018-05-18T10:16:07.809Z,60.95
2018-05-18T10:17:07.818Z,61.27
2018-05-18T10:18:07.815Z,60.01
2018-05-18T10:19:07.832Z,60.71
2018-05-18T10:20:07.821Z,59.61
2018-05-18T10:21:07.830Z,59.42
2018-05-18T10:22:07.851Z,59.01
2018-05-18T10:23:07.831Z,57.86
2018-05-18T10:24:07.859Z,58.82
2018-05-18T10:25:07.808Z,58.58
2018-05-18T10:26:07.825Z,58.36
2018-05-18T10:27:07.890Z,58.05
2018-05-18T10:28:07.849Z,57.69
2018-05-18T10:29:07.838Z,58.04
2018-05-18T10:30:07.808Z,58.2
2018-05-18T10:31:07.807Z,57.2
2018-05-18T10:32:07.817Z,58.07
2018-05-18T10:33:07.822Z,57.4
2018-05-18T10:34:07.806Z,58.95
2018-05-18T10:35:07.824Z,58.99
2018-05-18T10:36:07.820Z,58.53
2018-05-18T10:37:07.839Z,59
2018-05-18T10:38:08.110Z,57.34
2018-05-18T10:39:07.817Z,57.4
2018-05-18T10:40:07.861Z,57.14
2018-05-18T10:41:07.849Z,57.9
2018-05-18T10:42:07.851Z,59.57
2018-05-18T10:43:07.868Z,59.53
2018-05-18T10:44:07.861Z,58.94
2018-05-18T10:45:07.849Z,58.5
2018-05-18T10:46:07.849Z,58.87
2018-05-18T10:47:08.480Z,56.89
2018-05-18T10:48:07.836Z,58.07
2018-05-18T10:49:08.598Z,57.2
2018-05-18T10:50:07.847Z,57.55
2018-05-18T10:51:07.849Z,57.42
2018-05-18T10:52:07.863Z,57.52
2018-05-18T10:53:08.349Z,58.05
2018-05-18T10:54:07.913Z,58.65
2018-05-18T10:55:07.948Z,57.93
2018-05-18T10:56:07.866Z,58.05
2018-05-18T10:57:08.106Z,59.07
2018-05-18T10:58:07.876Z,58.65
2018-05-18T10:59:08.575Z,57.91
2018-05-18T11:00:08.586Z,57.59
2018-05-18T11:01:08.864Z,57.03
2018-05-18T11:02:08.503Z,56.89
2018-05-18T11:03:09.021Z,58.23
2018-05-18T11:04:08.656Z,57.92
2018-05-18T11:05:08.884Z,57.7
2018-05-18T11:06:08.154Z,56.99
2018-05-18T11:07:07.844Z,56.54
2018-05-18T11:08:07.847Z,57.27
2018-05-18T11:09:07.928Z,57.23
2018-05-18T11:10:07.841Z,58.15
2018-05-18T11:11:07.847Z,57.48
2018-05-18T11:12:07.876Z,57.27
2018-05-18T11:13:07.842Z,58.12
2018-05-18T11:14:08.570Z,57.97
2018-05-18T11:15:07.916Z,56.56
2018-05-18T11:16:07.846Z,57.42
2018-05-18T11:17:07.858Z,56.42
2018-05-18T11:18:07.871Z,58.09
2018-05-18T11:19:07.895Z,57.36
2018-05-18T11:20:08.262Z,56.94
2018-05-18T11:21:07.897Z,56.77
2018-05-18T11:22:07.848Z,56.52
2018-05-18T11:23:07.863Z,56.32
2018-05-18T11:24:08.011Z,56.1
2018-05-18T11:25:07.967Z,57.33
2018-05-18T11:26:07.887Z,57.56
2018-05-18T11:27:07.869Z,55.52
2018-05-18T11:28:07.895Z,56.18
2018-05-18T11:29:07.874Z,56.55
2018-05-18T11:30:07.856Z,55.59
2018-05-18T11:31:07.895Z,56.55
2018-05-18T11:32:07.877Z,55.75
2018-05-18T11:33:08.160Z,55.58
2018-05-18T11:34:07.850Z,56.17
2018-05-18T11:35:07.848Z,56.32
2018-05-18T11:36:07.840Z,56.83
2018-05-18T11:37:07.844Z,56.56
2018-05-18T11:38:07.861Z,55.02
2018-05-18T11:39:08.219Z,55.79
2018-05-18T11:40:07.856Z,56.61
2018-05-18T11:41:07.954Z,57.02
2018-05-18T11:42:07.897Z,56.51
2018-05-18T11:43:07.877Z,56.07
2018-05-18T11:44:07.874Z,54.92
2018-05-18T11:45:07.915Z,54.63
2018-05-18T11:46:07.893Z,55.53
2018-05-18T11:47:07.854Z,54.98
2018-05-18T11:48:08.288Z,55.16
2018-05-18T11:49:07.945Z,55.25
2018-05-18T11:50:08.098Z,55.59
2018-05-18T11:51:07.899Z,55.16
2018-05-18T11:52:07.853Z,54.6
2018-05-18T11:53:07.884Z,55.58
2018-05-18T11:54:07.876Z,55.4
2018-05-18T11:55:07.877Z,55.21
2018-05-18T11:56:07.914Z,55.22
2018-05-18T11:57:08.250Z,55.2
2018-05-18T11:58:07.898Z,53.9
2018-05-18T11:59:07.870Z,54.55
2018-05-18T12:00:07.961Z,54.39
2018-05-18T12:01:07.963Z,54
2018-05-18T12:02:07.896Z,54.22
2018-05-18T12:03:07.963Z,53.86
2018-05-18T12:04:07.959Z,54.38
2018-05-18T12:05:07.929Z,54.35
2018-05-18T12:06:07.859Z,54.57
2018-05-18T12:07:07.976Z,53.39
2018-05-18T12:08:08.025Z,54.5
2018-05-18T12:09:07.866Z,55.25
2018-05-18T12:10:07.946Z,53.64
2018-05-18T12:11:07.961Z,54.22
2018-05-18T12:12:07.878Z,53.2
2018-05-18T12:13:07.918Z,54.19
2018-05-18T12:14:08.123Z,54.37
2018-05-18T12:15:07.955Z,53.91
2018-05-18T12:16:07.886Z,53.22
2018-05-18T12:17:07.929Z,54.8
2018-05-18T12:18:08.060Z,54.6
2018-05-18T12:19:07.937Z,55.41
2018-05-18T12:20:07.966Z,54.26
2018-05-18T12:21:07.932Z,54.59
2018-05-18T12:22:07.968Z,52.89
2018-05-18T12:23:07.877Z,53.72
2018-05-18T12:24:07.877Z,53
2018-05-18T12:25:07.954Z,52.45
2018-05-18T12:26:08.359Z,53.26
2018-05-18T12:27:07.981Z,53.34
2018-05-18T12:28:07.920Z,53.64
2018-05-18T12:29:07.952Z,52.81
2018-05-18T12:30:07.907Z,52.86
2018-05-18T12:31:07.940Z,52.77
2018-05-18T12:32:07.898Z,52.93
2018-05-18T12:33:07.930Z,53.13
2018-05-18T12:34:07.956Z,52.5
2018-05-18T12:35:07.916Z,52.15
2018-05-18T12:36:07.933Z,51.23
2018-05-18T12:37:07.891Z,51.68
2018-05-18T12:38:08.388Z,50.9
2018-05-18T12:39:07.896Z,50.83
2018-05-18T12:40:07.885Z,51.27
2018-05-18T12:41:07.882Z,51.23
2018-05-18T12:42:07.965Z,51.76
2018-05-18T12:43:07.877Z,52.06
2018-05-18T12:44:07.920Z,50.35
2018-05-18T12:45:07.994Z,50.1
2018-05-18T12:46:08.439Z,49.65
2018-05-18T12:47:08.002Z,49.64
2018-05-18T12:48:07.912Z,49.81
2018-05-18T12:49:08.011Z,49.97
2018-05-18T12:50:08.028Z,50.01
2018-05-18T12:51:08.034Z,49.1
2018-05-18T12:52:07.916Z,49.55
2018-05-18T12:53:08.066Z,48.38
2018-05-18T12:54:08.821Z,48.52
2018-05-18T12:55:07.955Z,47.72
2018-05-18T12:56:08.036Z,47.65